Time;durP1;ratioP1;P1;durP2;ratioP2;P2;SDS_P1;SDS_P2;PMS_P1;PMS_P2;Temp;Humidity;BMP_temperature;BMP_pressure;BME280_temperature;BME280_humidity;BME280_pressure;Samples;Min_cycle;Max_cycle;Signal;HPM_P1;HPM_P2
2021/10/18 00:01:40;;;;;;;27.00;4.57;;;9.40;99.90;;;;;;5058373;28;20529;-85
2021/10/18 00:04:07;;;;;;;26.43;4.53;;;9.40;99.90;;;;;;5058737;28;21006;-85
2021/10/18 00:06:34;;;;;;;27.20;3.83;;;9.40;99.90;;;;;;5060081;28;20837;-83
2021/10/18 00:09:00;;;;;;;28.20;4.90;;;9.40;99.90;;;;;;5060381;28;20450;-85
2021/10/18 00:11:29;;;;;;;25.70;4.20;;;9.30;99.90;;;;;;5060989;28;20567;-85
2021/10/18 00:13:56;;;;;;;25.93;4.20;;;9.30;99.90;;;;;;5059004;28;20541;-83
2021/10/18 00:16:23;;;;;;;27.90;4.90;;;9.30;99.90;;;;;;5070004;28;20468;-85
2021/10/18 00:18:50;;;;;;;28.00;4.93;;;9.30;99.90;;;;;;5063630;28;20448;-85
2021/10/18 00:21:16;;;;;;;26.27;4.00;;;9.20;99.90;;;;;;5060044;28;20463;-85
2021/10/18 00:23:43;;;;;;;27.10;4.40;;;9.20;99.90;;;;;;5059632;28;20450;-85
2021/10/18 00:26:10;;;;;;;27.40;4.33;;;9.20;99.90;;;;;;5060325;28;20508;-85
2021/10/18 00:28:38;;;;;;;27.17;3.97;;;9.20;99.90;;;;;;5059060;28;20449;-85
2021/10/18 00:31:05;;;;;;;27.63;5.10;;;9.10;99.90;;;;;;5058703;28;20490;-85
2021/10/18 00:33:31;;;;;;;26.00;4.23;;;9.10;99.90;;;;;;5057614;28;20830;-85
2021/10/18 00:35:58;;;;;;;26.93;4.00;;;9.00;99.90;;;;;;5057834;28;20564;-85
2021/10/18 00:38:25;;;;;;;26.30;3.60;;;9.00;99.90;;;;;;5057986;28;20456;-85
2021/10/18 00:40:52;;;;;;;27.90;4.40;;;8.90;99.90;;;;;;5058692;28;20464;-86
2021/10/18 00:43:18;;;;;;;27.53;4.53;;;8.90;99.90;;;;;;5058457;28;20461;-85
2021/10/18 00:45:47;;;;;;;26.37;4.03;;;8.90;99.90;;;;;;5058380;28;20449;-85
2021/10/18 00:48:13;;;;;;;28.07;4.07;;;8.80;99.90;;;;;;5056952;28;20453;-85
2021/10/18 00:50:41;;;;;;;27.80;4.10;;;8.80;99.90;;;;;;5059283;28;20485;-85
2021/10/18 00:53:08;;;;;;;27.67;4.17;;;8.70;99.90;;;;;;5070623;28;20497;-83
2021/10/18 00:55:35;;;;;;;26.57;3.67;;;8.60;99.90;;;;;;5066177;28;20503;-84
2021/10/18 00:58:02;;;;;;;30.50;3.93;;;8.60;99.90;;;;;;5057469;28;20484;-84
2021/10/18 01:00:28;;;;;;;28.87;3.87;;;8.60;99.90;;;;;;5060664;28;20830;-84
2021/10/18 01:02:57;;;;;;;29.80;4.30;;;8.60;99.90;;;;;;5059871;28;21121;-85
2021/10/18 01:05:23;;;;;;;27.90;4.13;;;8.50;99.90;;;;;;5061172;28;20448;-84
2021/10/18 01:07:51;;;;;;;28.10;3.90;;;8.50;99.90;;;;;;5060585;28;20464;-85
2021/10/18 01:10:18;;;;;;;27.27;3.60;;;8.50;99.90;;;;;;5068877;28;21032;-85
2021/10/18 01:12:44;;;;;;;27.97;3.97;;;8.40;99.90;;;;;;5063168;28;20448;-85
2021/10/18 01:15:11;;;;;;;29.37;4.10;;;8.40;99.90;;;;;;5060449;28;20454;-85
2021/10/18 01:17:38;;;;;;;29.93;3.80;;;8.40;99.90;;;;;;5059274;28;20848;-85
2021/10/18 01:20:10;;;;;;;28.50;4.07;;;8.40;99.90;;;;;;5060963;28;20456;-85
2021/10/18 01:22:38;;;;;;;27.87;3.50;;;8.40;99.90;;;;;;5062253;28;20529;-86
2021/10/18 01:25:06;;;;;;;28.80;4.20;;;8.40;99.90;;;;;;5058796;28;20449;-85
2021/10/18 01:27:33;;;;;;;30.27;4.33;;;8.40;99.90;;;;;;5056987;28;20963;-85
2021/10/18 01:29:59;;;;;;;29.93;3.90;;;8.30;99.90;;;;;;5060744;28;20467;-85
2021/10/18 01:32:26;;;;;;;29.50;4.00;;;8.30;99.90;;;;;;5056388;28;20849;-85
2021/10/18 01:34:53;;;;;;;28.37;3.83;;;8.30;99.90;;;;;;5060662;28;20448;-85
2021/10/18 01:37:20;;;;;;;30.07;4.20;;;8.30;99.90;;;;;;5060329;28;20460;-83
2021/10/18 01:39:48;;;;;;;30.20;4.20;;;8.20;99.90;;;;;;5055585;28;20998;-85
2021/10/18 01:42:15;;;;;;;27.80;3.60;;;8.20;99.90;;;;;;5051621;28;20487;-84
2021/10/18 01:44:41;;;;;;;28.83;3.80;;;8.20;99.90;;;;;;5057071;28;20894;-84
2021/10/18 01:47:08;;;;;;;28.97;3.80;;;8.20;99.90;;;;;;5054493;28;20487;-83
2021/10/18 01:49:35;;;;;;;28.50;3.93;;;8.20;99.90;;;;;;5051683;28;20819;-83
2021/10/18 01:52:02;;;;;;;28.67;4.20;;;8.10;99.90;;;;;;5059389;28;20488;-84
2021/10/18 01:54:29;;;;;;;30.00;3.90;;;8.20;99.90;;;;;;5059649;28;20440;-83
2021/10/18 01:56:57;;;;;;;30.23;4.43;;;8.10;99.90;;;;;;5059009;28;20454;-84
2021/10/18 01:59:24;;;;;;;31.03;4.50;;;8.10;99.90;;;;;;5059088;28;20623;-84
2021/10/18 02:01:50;;;;;;;29.30;3.67;;;8.20;99.90;;;;;;5058821;28;20518;-83
2021/10/18 02:04:17;;;;;;;31.03;4.00;;;8.10;99.90;;;;;;5059886;28;20455;-84
2021/10/18 02:06:44;;;;;;;30.67;4.37;;;8.10;99.90;;;;;;5058710;28;20902;-84
2021/10/18 02:09:11;;;;;;;30.73;4.00;;;8.10;99.90;;;;;;5056737;28;20472;-84
2021/10/18 02:11:38;;;;;;;29.23;3.60;;;8.00;99.90;;;;;;5061339;28;20495;-81
2021/10/18 02:14:06;;;;;;;25.13;3.27;;;8.40;99.90;;;;;;5065248;28;20455;-83
2021/10/18 02:16:33;;;;;;;33.73;3.30;;;11.00;99.90;;;;;;5064850;28;20517;-83
2021/10/18 02:18:59;;;;;;;38.23;3.17;;;11.50;99.90;;;;;;5052054;28;20455;-82
2021/10/18 02:21:27;;;;;;;36.70;3.77;;;11.90;99.90;;;;;;5060952;28;20568;-83
2021/10/18 02:23:54;;;;;;;37.33;3.63;;;11.60;99.90;;;;;;5056320;28;20456;-82
2021/10/18 02:26:20;;;;;;;33.90;4.63;;;11.10;99.90;;;;;;5058020;28;20485;-82
2021/10/18 02:28:47;;;;;;;34.20;3.93;;;10.60;99.90;;;;;;5056723;28;20461;-83
2021/10/18 02:31:15;;;;;;;29.40;3.23;;;10.20;99.90;;;;;;5055087;28;20498;-83
2021/10/18 02:33:42;;;;;;;30.10;3.70;;;9.80;99.90;;;;;;5055146;28;20454;-83
2021/10/18 02:36:09;;;;;;;27.83;3.30;;;9.50;99.90;;;;;;5056366;28;20454;-83
2021/10/18 02:38:38;;;;;;;26.60;2.70;;;9.30;99.90;;;;;;5058767;28;20450;-83
2021/10/18 02:41:05;;;;;;;29.50;3.57;;;9.10;99.90;;;;;;5058088;28;20492;-84
2021/10/18 02:43:31;;;;;;;27.60;3.50;;;9.00;99.90;;;;;;5052652;28;20474;-84
2021/10/18 02:45:58;;;;;;;29.50;4.00;;;8.80;99.90;;;;;;5061560;28;20451;-84
2021/10/18 02:48:26;;;;;;;27.43;3.57;;;8.70;99.90;;;;;;5058897;28;20459;-84
2021/10/18 02:50:53;;;;;;;29.33;3.60;;;8.50;99.90;;;;;;5060699;28;20502;-83
2021/10/18 02:53:20;;;;;;;28.00;3.73;;;8.50;99.90;;;;;;5080561;28;20459;-83
2021/10/18 02:55:47;;;;;;;28.90;4.27;;;8.40;99.90;;;;;;5066824;28;20451;-84
2021/10/18 02:58:14;;;;;;;28.70;4.57;;;8.30;99.90;;;;;;5061891;28;20460;-84
2021/10/18 03:00:41;;;;;;;28.17;4.10;;;8.30;99.90;;;;;;5068377;28;20467;-84
2021/10/18 03:03:08;;;;;;;28.80;3.80;;;8.20;99.90;;;;;;5064343;28;20451;-84
2021/10/18 03:05:36;;;;;;;30.53;4.23;;;8.20;99.90;;;;;;5060860;28;20452;-84
2021/10/18 03:08:03;;;;;;;30.40;4.40;;;8.30;99.90;;;;;;5059558;28;20452;-84
2021/10/18 03:10:30;;;;;;;29.90;4.20;;;8.20;99.90;;;;;;5064047;28;20457;-85
2021/10/18 03:12:56;;;;;;;27.70;3.70;;;8.20;99.90;;;;;;5071775;28;20449;-85
2021/10/18 03:15:23;;;;;;;29.33;4.50;;;8.20;99.90;;;;;;5056589;28;20452;-85
2021/10/18 03:17:51;;;;;;;29.70;3.80;;;8.10;99.90;;;;;;5056968;28;20982;-84
2021/10/18 03:20:18;;;;;;;31.63;4.73;;;8.10;99.90;;;;;;5055634;28;20452;-85
2021/10/18 03:22:47;;;;;;;30.87;4.00;;;8.10;99.90;;;;;;5055551;28;20445;-84
2021/10/18 03:25:13;;;;;;;31.60;4.83;;;8.10;99.90;;;;;;5055537;28;20453;-85
2021/10/18 03:27:40;;;;;;;29.07;4.53;;;8.00;99.90;;;;;;5054831;28;20459;-84
2021/10/18 03:30:08;;;;;;;31.33;4.50;;;8.00;99.90;;;;;;5055769;28;20452;-85
2021/10/18 03:32:35;;;;;;;32.03;4.90;;;7.90;99.90;;;;;;5055282;28;20488;-84
2021/10/18 03:35:02;;;;;;;30.30;4.70;;;7.90;99.90;;;;;;5056174;28;20463;-85
2021/10/18 03:37:29;;;;;;;29.07;4.80;;;7.90;99.90;;;;;;5056325;28;20460;-86
2021/10/18 03:39:57;;;;;;;27.80;4.63;;;7.90;99.90;;;;;;5040653;28;20458;-87
2021/10/18 03:42:24;;;;;;;30.47;4.50;;;7.90;99.90;;;;;;5021074;28;20816;-83
2021/10/18 03:44:51;;;;;;;29.60;4.53;;;8.00;99.90;;;;;;5053576;28;20814;-84
2021/10/18 03:47:18;;;;;;;30.87;5.10;;;8.10;99.90;;;;;;5052563;28;20495;-84
2021/10/18 03:49:45;;;;;;;31.10;4.93;;;8.10;99.90;;;;;;5053407;28;20548;-84
2021/10/18 03:52:12;;;;;;;30.70;5.30;;;8.00;99.90;;;;;;5053630;28;20497;-83
2021/10/18 03:54:39;;;;;;;29.20;4.70;;;8.00;99.90;;;;;;5056116;28;20967;-83
2021/10/18 03:57:07;;;;;;;31.10;4.67;;;8.00;99.90;;;;;;5057024;28;20529;-84
2021/10/18 03:59:34;;;;;;;31.57;4.77;;;8.00;99.90;;;;;;5058934;28;20446;-84
2021/10/18 04:02:04;;;;;;;29.63;5.10;;;8.00;99.90;;;;;;5058050;28;20448;-84
2021/10/18 04:04:31;;;;;;;31.67;4.93;;;7.90;99.90;;;;;;5059116;28;20478;-84
2021/10/18 04:06:58;;;;;;;32.20;4.80;;;7.90;99.90;;;;;;5056355;28;20455;-84
2021/10/18 04:09:24;;;;;;;28.27;4.30;;;7.90;99.90;;;;;;5055526;28;20456;-85
2021/10/18 04:11:51;;;;;;;29.40;4.63;;;7.90;99.90;;;;;;5055227;28;20495;-84
2021/10/18 04:14:19;;;;;;;31.30;4.17;;;7.90;99.90;;;;;;5054774;28;20462;-84
2021/10/18 04:16:46;;;;;;;29.27;5.10;;;7.90;99.90;;;;;;5054205;28;20451;-85
2021/10/18 04:19:13;;;;;;;29.47;4.80;;;7.90;99.90;;;;;;5055120;28;20982;-85
2021/10/18 04:21:40;;;;;;;32.03;4.93;;;7.90;99.90;;;;;;5054470;28;20465;-86
2021/10/18 04:24:07;;;;;;;27.50;4.90;;;7.80;99.90;;;;;;5055011;28;20459;-85
2021/10/18 04:26:34;;;;;;;29.73;4.70;;;7.80;99.90;;;;;;5053594;28;20460;-85
2021/10/18 04:29:00;;;;;;;29.27;4.47;;;7.80;99.90;;;;;;5055407;28;20996;-85
2021/10/18 04:31:29;;;;;;;30.10;4.80;;;7.80;99.90;;;;;;5055662;28;20480;-85
2021/10/18 04:33:57;;;;;;;37.43;8.17;;;7.70;99.90;;;;;;5053328;28;20447;-86
2021/10/18 04:36:24;;;;;;;36.47;6.60;;;7.80;99.90;;;;;;5059971;28;20834;-85
2021/10/18 04:38:51;;;;;;;34.27;5.83;;;7.80;99.90;;;;;;5051579;28;20956;-85
2021/10/18 04:41:18;;;;;;;31.80;5.70;;;7.80;99.90;;;;;;5052835;28;20480;-86
2021/10/18 04:43:45;;;;;;;30.97;6.10;;;7.70;99.90;;;;;;5054964;28;20984;-85
2021/10/18 04:46:11;;;;;;;29.03;5.20;;;7.70;99.90;;;;;;5059873;28;20462;-86
2021/10/18 04:48:40;;;;;;;31.03;5.30;;;7.70;99.90;;;;;;5061512;28;20448;-86
2021/10/18 04:51:06;;;;;;;35.53;6.13;;;7.70;99.90;;;;;;5074862;28;20460;-86
2021/10/18 04:53:33;;;;;;;31.83;5.73;;;7.70;99.90;;;;;;5056424;28;20447;-87
2021/10/18 04:56:00;;;;;;;30.70;4.53;;;7.70;99.90;;;;;;5055350;28;20448;-86
2021/10/18 04:58:28;;;;;;;31.90;5.70;;;7.70;99.90;;;;;;5053564;28;20456;-87
2021/10/18 05:00:56;;;;;;;30.00;4.93;;;7.70;99.90;;;;;;5054217;28;20474;-86
2021/10/18 05:03:23;;;;;;;30.73;5.67;;;7.70;99.90;;;;;;5056260;28;20854;-86
2021/10/18 05:05:52;;;;;;;30.40;5.30;;;7.70;99.90;;;;;;5058988;28;21056;-86
2021/10/18 05:08:18;;;;;;;32.63;5.97;;;7.70;99.90;;;;;;5060606;28;20445;-87
2021/10/18 05:10:46;;;;;;;30.23;5.03;;;7.70;99.90;;;;;;5053219;28;20840;-87
2021/10/18 05:13:15;;;;;;;32.07;5.37;;;7.70;99.90;;;;;;5050375;28;20525;-87
2021/10/18 05:15:42;;;;;;;33.53;5.30;;;7.70;99.90;;;;;;5065585;28;20457;-87
2021/10/18 05:18:09;;;;;;;30.73;5.60;;;7.70;99.90;;;;;;5056198;28;20509;-86
2021/10/18 05:20:36;;;;;;;31.70;6.03;;;7.70;99.90;;;;;;5054583;28;20494;-87
2021/10/18 05:23:05;;;;;;;31.50;5.50;;;7.60;99.90;;;;;;5055431;28;20451;-87
2021/10/18 05:25:31;;;;;;;31.07;5.17;;;7.70;99.90;;;;;;5055036;28;20837;-85
2021/10/18 05:27:58;;;;;;;32.80;5.53;;;7.70;99.90;;;;;;5051322;28;20456;-88
2021/10/18 05:30:25;;;;;;;29.70;5.30;;;7.70;99.90;;;;;;5056390;28;20974;-86
2021/10/18 05:32:52;;;;;;;30.10;4.87;;;7.70;99.90;;;;;;5054715;28;20503;-85
2021/10/18 05:35:19;;;;;;;31.70;5.40;;;7.70;99.90;;;;;;5054757;28;21128;-85
2021/10/18 05:37:47;;;;;;;31.03;5.70;;;7.70;99.90;;;;;;5057918;28;20455;-85
2021/10/18 05:40:17;;;;;;;27.33;5.80;;;7.70;99.90;;;;;;5055394;28;20458;-84
2021/10/18 05:42:44;;;;;;;28.30;5.47;;;7.70;99.90;;;;;;5057793;28;20456;-85
2021/10/18 05:45:11;;;;;;;31.30;5.77;;;7.70;99.90;;;;;;5055551;28;20475;-84
2021/10/18 05:47:55;;;;;;;29.70;5.20;;;7.80;99.90;;;;;;5053557;28;20836;-84
2021/10/18 05:50:22;;;;;;;34.70;5.47;;;7.70;99.90;;;;;;5055401;28;20455;-84
2021/10/18 05:52:49;;;;;;;29.13;6.33;;;7.80;99.90;;;;;;5057270;28;20567;-84
2021/10/18 05:55:18;;;;;;;29.70;5.53;;;7.70;99.90;;;;;;5056128;28;20448;-84
2021/10/18 05:57:49;;;;;;;29.80;5.93;;;7.70;99.90;;;;;;5057261;28;20452;-84
2021/10/18 06:00:17;;;;;;;31.07;6.07;;;7.70;99.90;;;;;;5055653;28;20448;-85
2021/10/18 06:02:44;;;;;;;31.20;5.27;;;7.80;99.90;;;;;;5059114;28;20459;-84
2021/10/18 06:05:11;;;;;;;31.70;6.07;;;7.70;99.90;;;;;;5056928;28;20451;-83
2021/10/18 06:07:38;;;;;;;33.70;5.67;;;7.70;99.90;;;;;;5053901;28;20470;-82
2021/10/18 06:10:07;;;;;;;35.13;5.70;;;7.80;99.90;;;;;;5054224;28;20807;-82
2021/10/18 06:12:35;;;;;;;32.50;5.60;;;7.80;99.90;;;;;;5050181;28;20476;-84
2021/10/18 06:15:02;;;;;;;31.20;5.60;;;7.80;99.90;;;;;;5055205;28;20562;-83
2021/10/18 06:17:29;;;;;;;32.73;6.10;;;7.80;99.90;;;;;;5054726;28;20543;-84
2021/10/18 06:19:56;;;;;;;33.37;5.97;;;7.70;99.90;;;;;;5054165;28;20456;-84
2021/10/18 06:22:22;;;;;;;29.80;5.53;;;7.70;99.90;;;;;;5054803;28;20465;-84
2021/10/18 06:24:50;;;;;;;33.40;6.70;;;7.70;99.90;;;;;;5056766;28;20451;-84
2021/10/18 06:27:18;;;;;;;27.77;6.50;;;7.80;99.90;;;;;;5054460;28;20947;-84
2021/10/18 06:29:46;;;;;;;33.20;6.37;;;7.80;99.90;;;;;;5057375;28;20445;-86
2021/10/18 06:32:13;;;;;;;32.40;6.73;;;7.80;99.90;;;;;;5055263;28;20611;-86
2021/10/18 06:34:42;;;;;;;34.27;6.30;;;7.90;99.90;;;;;;5056577;28;20536;-85
2021/10/18 06:37:10;;;;;;;35.00;7.70;;;7.80;99.90;;;;;;5055504;28;20975;-84
2021/10/18 06:39:37;;;;;;;34.60;6.53;;;7.80;99.90;;;;;;5058646;28;20439;-84
2021/10/18 06:42:03;;;;;;;31.80;5.67;;;7.90;99.90;;;;;;5056390;28;21126;-86
2021/10/18 06:44:30;;;;;;;32.63;6.33;;;7.90;99.90;;;;;;5058625;28;20898;-86
2021/10/18 06:46:58;;;;;;;33.83;7.10;;;8.00;99.90;;;;;;5059292;28;20499;-86
2021/10/18 06:49:26;;;;;;;29.43;6.70;;;8.10;99.90;;;;;;5072572;28;20488;-85
2021/10/18 06:51:54;;;;;;;36.10;7.03;;;8.10;99.90;;;;;;5054919;28;20474;-86
2021/10/18 06:54:21;;;;;;;29.13;6.77;;;8.20;99.90;;;;;;5052721;28;20464;-86
2021/10/18 06:56:48;;;;;;;28.93;8.00;;;8.20;99.90;;;;;;5070829;28;20452;-87
2021/10/18 06:59:16;;;;;;;30.80;7.00;;;8.30;99.90;;;;;;5065580;28;20531;-84
2021/10/18 07:01:43;;;;;;;32.20;7.50;;;8.30;99.90;;;;;;5054254;28;20488;-84
2021/10/18 07:04:13;;;;;;;37.20;7.90;;;8.40;99.90;;;;;;5053393;28;20460;-84
2021/10/18 07:06:39;;;;;;;31.87;7.60;;;8.50;99.90;;;;;;5059165;28;21037;-83
2021/10/18 07:09:06;;;;;;;32.93;7.80;;;8.50;99.90;;;;;;5056317;28;20543;-83
2021/10/18 07:11:33;;;;;;;32.07;7.60;;;8.60;99.90;;;;;;5065358;22;20511;-82
2021/10/18 07:14:00;;;;;;;30.43;6.97;;;8.70;99.90;;;;;;5070145;28;20487;-85
2021/10/18 07:16:26;;;;;;;35.63;8.63;;;8.80;99.90;;;;;;5069802;28;20460;-85
2021/10/18 07:18:53;;;;;;;29.47;7.63;;;8.90;99.90;;;;;;5075928;28;20499;-86
2021/10/18 07:21:21;;;;;;;32.77;7.80;;;9.00;99.90;;;;;;5068493;28;20490;-86
2021/10/18 07:23:52;;;;;;;27.80;6.57;;;9.00;99.90;;;;;;5054064;28;21294;-83
2021/10/18 07:26:19;;;;;;;27.40;6.57;;;9.10;99.90;;;;;;5055973;28;20966;-84
2021/10/18 07:28:46;;;;;;;28.77;7.30;;;9.20;99.90;;;;;;5056424;28;20461;-84
2021/10/18 07:31:12;;;;;;;29.27;6.73;;;9.20;99.90;;;;;;5055325;28;20464;-84
2021/10/18 07:33:39;;;;;;;28.93;7.37;;;9.40;99.90;;;;;;5056542;28;20576;-84
2021/10/18 07:36:10;;;;;;;29.40;7.50;;;9.50;99.90;;;;;;5056010;28;20513;-85
2021/10/18 07:38:39;;;;;;;30.03;8.13;;;9.60;99.90;;;;;;5055840;28;20455;-85
2021/10/18 07:41:06;;;;;;;28.27;8.30;;;9.60;99.90;;;;;;5051031;28;20479;-84
2021/10/18 07:43:33;;;;;;;27.80;7.00;;;9.70;99.90;;;;;;5058168;28;20461;-83
2021/10/18 07:46:00;;;;;;;27.87;7.73;;;9.80;99.90;;;;;;5060756;28;20455;-85
2021/10/18 07:48:27;;;;;;;28.07;7.13;;;9.80;99.90;;;;;;5055755;28;20450;-83
2021/10/18 07:50:54;;;;;;;25.97;7.03;;;10.00;99.90;;;;;;5053946;28;20872;-82
2021/10/18 07:53:20;;;;;;;26.77;6.80;;;10.00;99.90;;;;;;5047729;28;21218;-83
2021/10/18 07:55:49;;;;;;;26.37;6.77;;;10.10;99.90;;;;;;5051378;28;20461;-83
2021/10/18 07:58:15;;;;;;;27.57;6.87;;;10.30;99.90;;;;;;5052664;28;20552;-83
2021/10/18 08:00:42;;;;;;;27.93;6.37;;;10.40;99.90;;;;;;5051827;28;20467;-84
2021/10/18 08:03:09;;;;;;;27.40;6.90;;;10.50;99.90;;;;;;5052730;28;20462;-84
2021/10/18 08:05:36;;;;;;;25.90;6.10;;;10.60;99.90;;;;;;5054103;28;20976;-83
2021/10/18 08:08:04;;;;;;;26.03;7.10;;;10.70;99.90;;;;;;5047273;28;20461;-86
2021/10/18 08:10:31;;;;;;;27.23;6.63;;;10.80;99.90;;;;;;5047647;28;20966;-84
2021/10/18 08:13:00;;;;;;;26.47;6.40;;;10.90;99.90;;;;;;5053166;28;20483;-83
2021/10/18 08:15:31;;;;;;;27.17;7.30;;;11.00;99.90;;;;;;5053367;28;20522;-85
2021/10/18 08:17:58;;;;;;;27.00;6.97;;;11.10;99.90;;;;;;5055723;28;20480;-84
2021/10/18 08:20:25;;;;;;;25.87;5.63;;;11.20;99.90;;;;;;5053011;28;20689;-83
2021/10/18 08:22:52;;;;;;;27.20;6.57;;;11.40;99.90;;;;;;5056023;28;20834;-86
2021/10/18 08:25:19;;;;;;;23.70;6.13;;;11.50;99.90;;;;;;5055218;28;20493;-84
2021/10/18 08:27:46;;;;;;;27.00;6.23;;;11.60;99.90;;;;;;5055552;28;20541;-84
2021/10/18 08:30:15;;;;;;;25.93;6.00;;;11.80;99.90;;;;;;5055992;28;20744;-84
2021/10/18 08:32:42;;;;;;;26.23;6.30;;;11.80;99.90;;;;;;5055534;28;20499;-86
2021/10/18 08:35:11;;;;;;;30.30;8.70;;;12.00;99.90;;;;;;5054957;28;20454;-85
2021/10/18 08:40:25;;;;;;;32.43;7.30;;;12.20;99.90;;;;;;5055511;28;20454;-85
2021/10/18 08:43:00;;;;;;;26.27;5.60;;;12.30;99.90;;;;;;5056727;28;20452;-85
2021/10/18 08:45:29;;;;;;;30.13;6.13;;;12.40;99.90;;;;;;5056889;28;20461;-86
2021/10/18 08:47:56;;;;;;;31.73;7.40;;;12.50;99.90;;;;;;5069873;28;20475;-85
2021/10/18 08:50:25;;;;;;;26.10;6.30;;;12.70;99.90;;;;;;5054772;28;20530;-84
2021/10/18 08:52:52;;;;;;;25.23;5.70;;;12.90;99.90;;;;;;5055028;28;20570;-85
2021/10/18 08:55:19;;;;;;;26.10;5.73;;;13.00;99.90;;;;;;5053396;28;20482;-83
2021/10/18 08:57:47;;;;;;;25.73;5.67;;;13.10;99.90;;;;;;5053475;28;20991;-84
2021/10/18 09:00:43;;;;;;;25.53;5.50;;;13.10;99.90;;;;;;5053814;28;20461;-84
2021/10/18 09:03:19;;;;;;;24.20;5.27;;;13.30;99.90;;;;;;5047978;28;20458;-83
2021/10/18 09:05:46;;;;;;;26.17;8.43;;;13.40;99.90;;;;;;5051809;28;20517;-85
2021/10/18 09:08:34;;;;;;;29.80;5.70;;;13.50;99.90;;;;;;5052930;28;20448;-85
2021/10/18 09:11:06;;;;;;;28.93;6.63;;;13.50;99.90;;;;;;5048145;28;20844;-84
2021/10/18 09:13:32;;;;;;;28.87;6.40;;;13.70;99.90;;;;;;5063011;28;20493;-84
2021/10/18 09:16:01;;;;;;;28.70;6.30;;;13.80;99.90;;;;;;5064704;28;20481;-85
2021/10/18 09:18:28;;;;;;;28.90;5.70;;;13.90;99.90;;;;;;5063006;28;20454;-85
2021/10/18 09:20:55;;;;;;;27.20;5.70;;;14.00;99.90;;;;;;5071394;28;20462;-87
2021/10/18 09:23:27;;;;;;;30.20;5.90;;;14.20;99.90;;;;;;5071138;28;20446;-85
2021/10/18 09:25:59;;;;;;;26.23;3.37;;;14.40;99.90;;;;;;5068884;28;20512;-88
2021/10/18 09:28:29;;;;;;;37.13;5.20;;;16.00;99.90;;;;;;5067551;28;20759;-84
2021/10/18 09:30:56;;;;;;;31.20;5.73;;;16.50;99.90;;;;;;5063643;28;20544;-86
2021/10/18 09:33:28;;;;;;;34.07;6.27;;;16.70;99.90;;;;;;5060035;28;20495;-82
2021/10/18 09:35:55;;;;;;;31.63;5.10;;;16.70;99.90;;;;;;5061321;28;20466;-85
2021/10/18 09:38:24;;;;;;;29.67;5.97;;;16.80;99.90;;;;;;5063846;28;20470;-85
2021/10/18 09:40:53;;;;;;;30.43;6.27;;;16.90;99.90;;;;;;5064407;28;20528;-83
2021/10/18 09:43:29;;;;;;;29.97;5.17;;;16.90;99.90;;;;;;5062875;28;20537;-82
2021/10/18 09:45:59;;;;;;;29.17;6.17;;;16.70;99.90;;;;;;5061881;28;20497;-82
2021/10/18 10:53:54;;;;;;;32.57;4.00;;;20.20;99.90;;;;;;5050260;28;20487;-83
2021/10/18 10:56:38;;;;;;;31.67;3.93;;;20.80;99.90;;;;;;5050007;28;20466;-82
2021/10/18 10:59:19;;;;;;;33.50;4.40;;;20.80;99.90;;;;;;5055064;28;20458;-82
2021/10/18 11:01:58;;;;;;;34.10;3.80;;;21.00;99.90;;;;;;5055059;28;21017;-83
2021/10/18 11:04:45;;;;;;;34.67;4.10;;;20.50;99.90;;;;;;5059502;28;20451;-82
2021/10/18 11:07:21;;;;;;;34.10;4.20;;;20.40;99.90;;;;;;5053724;28;20470;-82
2021/10/18 11:09:50;;;;;;;38.70;5.47;;;20.20;99.90;;;;;;5051284;28;20462;-83
2021/10/18 11:12:26;;;;;;;36.27;3.27;;;19.60;99.90;;;;;;5054175;28;20470;-81
2021/10/18 11:14:56;;;;;;;37.67;3.67;;;19.70;99.90;;;;;;5052730;28;20478;-81
2021/10/18 11:17:23;;;;;;;37.33;3.77;;;19.70;99.90;;;;;;5053298;28;20440;-82
2021/10/18 11:19:54;;;;;;;38.93;3.90;;;19.70;99.90;;;;;;5052136;28;20490;-82
2021/10/18 11:22:30;;;;;;;36.13;3.43;;;20.10;99.90;;;;;;5052364;28;20468;-82
2021/10/18 11:24:58;;;;;;;35.73;3.30;;;20.60;99.90;;;;;;5054052;28;20451;-81
2021/10/18 11:27:31;;;;;;;30.73;3.83;;;21.10;99.90;;;;;;5052956;28;20996;-81
2021/10/18 11:30:02;;;;;;;30.03;3.50;;;21.20;99.90;;;;;;5051357;28;20466;-81
2021/10/18 11:32:31;;;;;;;33.40;3.50;;;21.30;99.90;;;;;;5050499;28;20482;-82
2021/10/18 11:35:11;;;;;;;29.77;3.43;;;21.80;99.90;;;;;;5056798;28;20483;-85
2021/10/18 11:37:49;;;;;;;29.13;4.10;;;22.80;99.90;;;;;;5057528;28;20459;-82
2021/10/18 11:40:18;;;;;;;28.30;3.60;;;23.00;99.90;;;;;;5056494;28;20456;-82
2021/10/18 11:42:50;;;;;;;28.20;4.00;;;23.10;99.90;;;;;;5053353;28;20452;-83
2021/10/18 11:45:19;;;;;;;28.40;3.43;;;22.80;99.90;;;;;;5053880;28;20446;-82
2021/10/18 11:47:46;;;;;;;28.40;3.00;;;22.70;99.90;;;;;;5048565;28;20528;-83
2021/10/18 11:50:21;;;;;;;30.43;5.43;;;22.20;99.90;;;;;;5053044;28;20466;-84
2021/10/18 11:52:54;;;;;;;33.40;4.47;;;21.50;99.90;;;;;;5037612;28;20447;-82
2021/10/18 11:55:23;;;;;;;30.70;3.83;;;21.10;99.90;;;;;;5054872;28;20559;-83
2021/10/18 11:57:54;;;;;;;30.30;3.87;;;20.70;99.90;;;;;;5042946;28;20448;-83
2021/10/18 12:00:27;;;;;;;32.73;3.63;;;20.90;99.90;;;;;;5049353;28;20448;-83
2021/10/18 12:02:59;;;;;;;28.83;3.80;;;21.50;99.90;;;;;;5038964;28;20458;-84
2021/10/18 12:05:28;;;;;;;30.03;3.90;;;22.70;99.90;;;;;;5055184;28;20460;-85
2021/10/18 12:07:56;;;;;;;26.10;2.93;;;23.00;99.90;;;;;;5051446;28;20539;-84
2021/10/18 12:10:25;;;;;;;27.33;3.57;;;23.80;99.90;;;;;;5050802;28;20448;-82
2021/10/18 12:13:21;;;;;;;27.07;3.43;;;23.20;99.90;;;;;;5057793;28;20550;-84
2021/10/18 12:16:14;;;;;;;27.10;4.80;;;22.80;99.90;;;;;;5050873;28;20940;-83
2021/10/18 12:18:48;;;;;;;29.47;6.50;;;22.90;99.90;;;;;;5054302;28;20487;-83
2021/10/18 12:21:22;;;;;;;25.00;4.40;;;23.10;99.90;;;;;;5057166;28;20574;-87
2021/10/18 12:23:53;;;;;;;25.70;4.10;;;23.20;99.90;;;;;;5058417;28;20444;-84
2021/10/18 12:26:24;;;;;;;23.10;3.30;;;23.40;99.90;;;;;;5057479;28;20478;-85
2021/10/18 12:28:53;;;;;;;23.80;3.50;;;23.30;99.90;;;;;;5058377;28;20530;-85
2021/10/18 12:31:36;;;;;;;24.50;4.30;;;23.30;99.90;;;;;;5050922;28;20479;-87
2021/10/18 12:34:12;;;;;;;26.10;3.60;;;23.40;99.90;;;;;;5057240;28;20486;-83
2021/10/18 12:37:04;;;;;;;24.40;3.70;;;23.40;99.90;;;;;;5056510;28;20456;-85
2021/10/18 12:39:43;;;;;;;24.33;4.47;;;23.40;99.90;;;;;;5060474;28;20456;-84
2021/10/18 12:42:12;;;;;;;24.63;3.90;;;22.90;99.90;;;;;;5061965;28;20476;-87
2021/10/18 12:44:42;;;;;;;24.20;4.07;;;23.30;99.90;;;;;;5071442;28;20459;-86
2021/10/18 12:47:14;;;;;;;25.50;4.03;;;23.40;99.90;;;;;;5059817;28;20460;-84
2021/10/18 12:49:41;;;;;;;24.10;3.50;;;23.30;99.90;;;;;;5062642;28;20459;-84
2021/10/18 12:52:09;;;;;;;21.33;3.70;;;23.70;99.90;;;;;;5053232;28;20551;-85
2021/10/18 12:54:41;;;;;;;23.97;4.23;;;24.00;99.90;;;;;;5075267;28;20577;-84
2021/10/18 12:57:09;;;;;;;24.43;5.33;;;23.30;99.90;;;;;;5067813;28;20462;-85
2021/10/18 12:59:39;;;;;;;22.10;3.80;;;23.10;99.90;;;;;;5075929;28;20443;-84
2021/10/18 13:02:23;;;;;;;23.30;3.90;;;23.50;99.90;;;;;;5064708;28;20499;-85
2021/10/18 13:05:13;;;;;;;23.80;3.90;;;23.40;99.90;;;;;;5062958;28;20469;-85
2021/10/18 13:07:44;;;;;;;22.87;3.67;;;23.70;99.90;;;;;;5056866;28;20978;-86
2021/10/18 13:10:13;;;;;;;21.37;3.60;;;23.50;99.90;;;;;;5060533;28;20452;-84
2021/10/18 13:12:41;;;;;;;22.60;3.70;;;23.00;99.90;;;;;;5068143;28;20851;-85
2021/10/18 13:15:17;;;;;;;22.90;4.00;;;22.80;99.90;;;;;;5082982;28;20492;-84
2021/10/18 13:17:46;;;;;;;22.80;3.40;;;22.30;99.90;;;;;;5085802;28;20466;-85
2021/10/18 13:20:17;;;;;;;26.63;3.63;;;22.20;99.90;;;;;;5075740;28;20466;-86
2021/10/18 13:22:45;;;;;;;23.03;3.40;;;21.80;99.90;;;;;;5066196;28;20444;-84
2021/10/18 13:25:14;;;;;;;22.63;2.87;;;21.40;99.90;;;;;;5067309;28;20447;-84
2021/10/18 13:27:41;;;;;;;25.00;3.33;;;21.20;99.90;;;;;;5066619;28;20456;-83
2021/10/18 13:30:10;;;;;;;27.27;4.07;;;21.00;99.90;;;;;;5064197;28;20448;-84
2021/10/18 13:32:37;;;;;;;25.67;4.73;;;20.60;99.90;;;;;;5067228;28;20475;-87
2021/10/18 13:35:07;;;;;;;31.77;4.73;;;20.70;99.90;;;;;;5050464;28;20497;-84
2021/10/18 13:37:34;;;;;;;31.33;4.20;;;20.40;99.90;;;;;;5069631;28;20508;-85
2021/10/18 13:40:02;;;;;;;27.53;3.57;;;20.10;99.90;;;;;;5066111;28;20518;-83
2021/10/18 13:42:29;;;;;;;30.60;4.20;;;20.10;99.90;;;;;;5066621;28;20543;-84
2021/10/18 13:44:56;;;;;;;31.30;4.53;;;20.00;99.90;;;;;;5060255;28;20454;-87
2021/10/18 13:47:23;;;;;;;33.60;3.83;;;19.70;99.90;;;;;;5058192;28;20491;-87
2021/10/18 13:49:52;;;;;;;28.03;3.40;;;19.50;99.90;;;;;;5058501;28;20539;-85
2021/10/18 13:52:22;;;;;;;32.10;3.83;;;19.50;99.90;;;;;;5061885;28;20498;-86
2021/10/18 13:54:50;;;;;;;29.00;2.93;;;19.30;99.90;;;;;;5062319;28;20570;-85
2021/10/18 13:57:17;;;;;;;30.50;3.67;;;19.20;99.90;;;;;;5072840;28;20458;-86
2021/10/18 13:59:45;;;;;;;31.43;3.47;;;19.00;99.90;;;;;;5073916;28;21062;-85